Terminal Aerodrome Forecast
Issued by NWS Sioux Falls, SD

Home | Current Version | Previous Version | Graphics & Text | Print | Product List | Glossary Off
Versions: 1 2 3 4 5 6 7 8 9 10 11 12 13 14 15 16 17 18 19 20

170
FTUS43 KFSD 270520
TAFHON
TAF
KHON 270520Z 2706/2806 VRB03KT P6SM SCT200
     FM271200 VRB03KT P6SM VCTS OVC140CB
     FM271500 01006KT P6SM OVC090 PROB30 2716/2720 4SM TSRA OVC025CB
     FM280200 03006KT P6SM BKN110=

USA.gov is the U.S. government's official web portal to all federal, state and local government web resources and services.